createdAt,value
2018-05-02T00:00:25.341Z,91.16
2018-05-02T00:02:52.205Z,91.59
2018-05-02T00:05:19.076Z,90.65
2018-05-02T00:07:45.957Z,91.46
2018-05-02T00:10:12.845Z,91.64
2018-05-02T00:12:39.721Z,91.77
2018-05-02T00:15:06.604Z,91.34
2018-05-02T00:17:33.472Z,91.63
2018-05-02T00:20:00.361Z,91.72
2018-05-02T00:22:27.233Z,91.96
2018-05-02T00:27:27.724Z,92.01
2018-05-02T00:29:54.644Z,91.08
2018-05-02T00:32:21.505Z,91.06
2018-05-02T00:34:48.380Z,92.38
2018-05-02T00:37:15.267Z,92.63
2018-05-02T00:39:42.162Z,93.57
2018-05-02T00:42:09.028Z,93.80
2018-05-02T00:44:35.892Z,94.44
2018-05-02T00:47:02.791Z,94.12
2018-05-02T00:49:29.673Z,94.63
2018-05-02T00:51:56.553Z,95.01
2018-05-02T00:54:23.422Z,95.16
2018-05-02T00:56:50.309Z,95.72
2018-05-02T00:59:17.179Z,95.60
2018-05-02T01:01:44.347Z,96.17
2018-05-02T01:04:11.232Z,96.28
2018-05-02T01:06:38.112Z,96.29
2018-05-02T01:09:05.020Z,95.46
2018-05-02T01:11:31.904Z,96.70
2018-05-02T01:13:58.804Z,96.62
2018-05-02T01:16:25.684Z,97.04
2018-05-02T01:18:52.559Z,98.17
2018-05-02T01:21:19.442Z,97.40
2018-05-02T01:23:46.311Z,96.48
2018-05-02T01:26:13.215Z,97.51
2018-05-02T01:28:40.098Z,97.09
2018-05-02T01:31:06.985Z,97.53
2018-05-02T01:33:33.848Z,98.70
2018-05-02T01:36:00.726Z,98.09
2018-05-02T01:38:27.598Z,97.12
2018-05-02T01:40:54.464Z,96.94
2018-05-02T01:43:21.332Z,96.73
2018-05-02T01:45:48.199Z,98.58
2018-05-02T01:48:15.088Z,99.74
2018-05-02T01:50:41.976Z,98.09
2018-05-02T01:53:08.860Z,97.48
2018-05-02T01:55:35.736Z,97.57
2018-05-02T01:58:02.612Z,97.61
2018-05-02T02:00:29.504Z,97.83
2018-05-02T02:02:56.374Z,97.68
2018-05-02T02:05:23.257Z,97.82
2018-05-02T02:07:50.152Z,97.38
2018-05-02T02:10:17.081Z,97.33
2018-05-02T02:12:43.957Z,96.96
2018-05-02T02:15:10.847Z,97.72
2018-05-02T02:17:37.716Z,97.43
2018-05-02T02:20:04.577Z,97.97
2018-05-02T02:22:31.458Z,97.81
2018-05-02T02:24:58.338Z,98.16
2018-05-02T02:27:25.213Z,100.00
2018-05-02T02:29:52.089Z,99.91
2018-05-02T02:32:18.969Z,98.23
2018-05-02T02:34:45.832Z,98.05
2018-05-02T02:37:12.710Z,97.98
2018-05-02T02:39:39.573Z,98.26
2018-05-02T02:42:06.456Z,98.03
2018-05-02T02:44:33.337Z,99.22
2018-05-02T02:47:00.212Z,99.75
2018-05-02T02:49:27.084Z,99.10
2018-05-02T02:51:53.989Z,98.27
2018-05-02T02:54:20.857Z,97.53
2018-05-02T02:56:47.755Z,97.79
2018-05-02T02:59:14.625Z,97.69
2018-05-02T03:01:41.512Z,98.77
2018-05-02T03:04:08.403Z,98.52
2018-05-02T03:06:35.284Z,98.62
2018-05-02T03:09:02.200Z,98.78
2018-05-02T03:11:29.087Z,99.13
2018-05-02T03:13:55.939Z,99.55
2018-05-02T03:16:22.836Z,100.00
2018-05-02T03:18:49.712Z,100.00
2018-05-02T03:21:16.592Z,100.00
2018-05-02T03:23:43.465Z,98.41
2018-05-02T03:26:10.341Z,98.18
2018-05-02T03:28:37.211Z,98.00
2018-05-02T03:31:04.104Z,97.81
2018-05-02T03:33:30.999Z,97.99
2018-05-02T03:35:57.868Z,97.84
2018-05-02T03:38:24.770Z,98.17
2018-05-02T03:40:51.642Z,98.38
2018-05-02T03:43:18.523Z,98.71
2018-05-02T03:45:45.392Z,100.00
2018-05-02T03:48:12.272Z,100.00
2018-05-02T03:50:39.174Z,100.00
2018-05-02T03:53:06.130Z,100.00
2018-05-02T03:55:32.953Z,100.00
2018-05-02T03:57:59.856Z,100.00
2018-05-02T04:01:41.047Z,100.00
2018-05-02T04:05:22.385Z,100.00
2018-05-02T04:07:49.285Z,100.00
2018-05-02T04:10:16.168Z,100.00
2018-05-02T04:12:43.089Z,100.00
2018-05-02T04:15:09.965Z,100.00
2018-05-02T04:17:36.852Z,100.00
2018-05-02T04:20:03.733Z,98.96
2018-05-02T04:22:30.625Z,99.58
2018-05-02T04:24:57.507Z,98.80
2018-05-02T04:27:24.404Z,98.79
2018-05-02T04:29:51.288Z,98.08
2018-05-02T04:32:18.161Z,98.39
2018-05-02T04:34:45.060Z,98.78
2018-05-02T04:37:11.935Z,98.12
2018-05-02T04:39:38.827Z,98.34
2018-05-02T04:42:05.707Z,98.65
2018-05-02T04:44:32.666Z,98.61
2018-05-02T04:46:59.531Z,98.34
2018-05-02T04:49:26.422Z,97.65
2018-05-02T04:51:53.288Z,98.24
2018-05-02T04:54:20.190Z,98.44
2018-05-02T04:56:47.078Z,98.57
2018-05-02T04:59:13.961Z,98.79
2018-05-02T05:01:40.836Z,98.59
2018-05-02T05:04:07.715Z,99.13
2018-05-02T05:09:40.664Z,99.26
2018-05-02T05:12:06.405Z,98.91
2018-05-02T05:14:32.157Z,98.31
2018-05-02T05:16:57.893Z,97.98
2018-05-02T05:19:23.651Z,97.46
2018-05-02T05:21:49.392Z,97.33
2018-05-02T05:24:15.145Z,96.40
2018-05-02T05:26:40.893Z,95.21
2018-05-02T05:29:06.649Z,94.68
2018-05-02T05:31:32.390Z,95.19
2018-05-02T05:33:58.136Z,95.56
2018-05-02T05:36:23.864Z,92.30
2018-05-02T05:38:49.620Z,92.75
2018-05-02T05:41:15.352Z,93.63
2018-05-02T05:43:41.147Z,92.63
2018-05-02T05:46:06.822Z,92.50
2018-05-02T05:48:32.566Z,90.53
2018-05-02T05:50:58.313Z,90.96
2018-05-02T05:53:24.061Z,89.76
2018-05-02T05:55:49.791Z,90.44
2018-05-02T05:58:15.554Z,89.41
2018-05-02T06:00:41.339Z,89.06
2018-05-02T06:03:07.131Z,85.17
2018-05-02T06:05:32.879Z,85.93
2018-05-02T06:07:58.621Z,84.30
2018-05-02T06:10:24.354Z,85.01
2018-05-02T06:12:50.145Z,83.73
2018-05-02T06:15:15.832Z,81.26
2018-05-02T06:17:41.573Z,78.66
2018-05-02T06:20:07.336Z,77.47
2018-05-02T06:22:33.080Z,77.87
2018-05-02T06:24:58.850Z,73.79
2018-05-02T06:27:24.593Z,74.61
2018-05-02T06:29:50.329Z,75.47
2018-05-02T06:32:16.058Z,75.88
2018-05-02T06:34:41.784Z,75.15
2018-05-02T06:37:07.514Z,69.71
2018-05-02T06:39:33.266Z,66.85
2018-05-02T06:41:59.016Z,64.95
2018-05-02T06:44:24.771Z,65.06
2018-05-02T06:46:50.513Z,65.14
2018-05-02T06:49:16.262Z,65.83
2018-05-02T06:51:41.992Z,65.73
2018-05-02T06:54:07.733Z,66.98
2018-05-02T06:56:33.476Z,64.86
2018-05-02T06:58:59.231Z,66.30
2018-05-02T07:01:24.982Z,67.33
2018-05-02T07:03:50.736Z,62.63
2018-05-02T07:06:16.477Z,65.33
2018-05-02T07:08:42.217Z,63.71
2018-05-02T07:11:07.965Z,64.45
2018-05-02T07:13:33.783Z,63.32
2018-05-02T07:15:59.473Z,65.25
2018-05-02T07:18:25.205Z,62.71
2018-05-02T07:20:50.960Z,64.16
2018-05-02T07:23:16.692Z,61.15
2018-05-02T07:25:42.420Z,62.84
2018-05-02T07:28:08.162Z,60.32
2018-05-02T07:30:33.930Z,60.02
2018-05-02T07:32:59.793Z,56.64
2018-05-02T07:35:25.423Z,56.39
2018-05-02T07:37:51.173Z,58.62
2018-05-02T07:40:17.312Z,54.85
2018-05-02T07:42:43.048Z,54.12
2018-05-02T07:45:08.785Z,55.25
2018-05-02T07:47:34.558Z,52.78
2018-05-02T07:50:00.305Z,55.95
2018-05-02T07:52:26.045Z,55.33
2018-05-02T07:54:51.776Z,53.66
2018-05-02T07:57:17.520Z,52.92
2018-05-02T07:59:43.276Z,54.17
2018-05-02T08:02:09.004Z,53.76
2018-05-02T08:04:34.748Z,52.95
2018-05-02T08:07:00.480Z,52.39
2018-05-02T08:09:26.237Z,53.49
2018-05-02T08:11:51.976Z,55.03
2018-05-02T08:14:17.687Z,53.85
2018-05-02T08:16:43.441Z,53.40
2018-05-02T08:19:09.177Z,52.14
2018-05-02T08:21:34.961Z,52.39
2018-05-02T08:24:00.717Z,52.36
2018-05-02T08:26:26.476Z,49.72
2018-05-02T08:28:52.213Z,51.06
2018-05-02T08:31:17.955Z,49.40
2018-05-02T08:33:43.676Z,52.92
2018-05-02T08:36:09.428Z,50.77
2018-05-02T08:38:35.163Z,48.59
2018-05-02T08:41:00.913Z,48.10
2018-05-02T08:43:33.511Z,48.65
2018-05-02T08:45:59.355Z,51.18
2018-05-02T08:48:25.017Z,49.37
2018-05-02T08:50:50.777Z,47.79
2018-05-02T08:53:16.529Z,47.20
2018-05-02T08:55:42.277Z,48.51
2018-05-02T08:58:08.045Z,50.87
2018-05-02T09:00:33.806Z,47.36
2018-05-02T09:02:59.553Z,47.96
2018-05-02T09:05:25.298Z,48.53
2018-05-02T09:07:51.037Z,48.20
2018-05-02T09:10:16.825Z,47.18
2018-05-02T09:12:42.552Z,47.42
2018-05-02T09:15:08.316Z,48.84
2018-05-02T09:17:34.060Z,48.81
2018-05-02T09:19:59.798Z,47.48
2018-05-02T09:22:25.554Z,48.39
2018-05-02T09:24:51.284Z,45.78
2018-05-02T09:27:17.026Z,46.49
2018-05-02T09:29:42.770Z,46.94
2018-05-02T09:32:08.508Z,47.83
2018-05-02T09:34:34.231Z,45.92
2018-05-02T09:36:59.968Z,44.71
2018-05-02T09:39:25.701Z,47.04
2018-05-02T09:41:51.446Z,45.50
2018-05-02T09:44:17.172Z,45.80
2018-05-02T09:46:42.925Z,47.25
2018-05-02T09:49:08.648Z,45.98
2018-05-02T09:51:34.401Z,47.69
2018-05-02T09:54:00.128Z,44.44
2018-05-02T09:56:25.876Z,43.08
2018-05-02T09:58:51.616Z,44.60
2018-05-02T10:01:17.361Z,43.44
2018-05-02T10:03:43.109Z,43.05
2018-05-02T10:06:08.852Z,44.00
2018-05-02T10:08:34.590Z,43.79
2018-05-02T10:11:00.342Z,41.06
2018-05-02T10:13:26.075Z,42.14
2018-05-02T10:15:51.826Z,42.44
2018-05-02T10:18:17.564Z,44.37
2018-05-02T10:20:43.304Z,41.25
2018-05-02T10:23:09.045Z,41.92
2018-05-02T10:25:34.785Z,40.96
2018-05-02T10:28:00.519Z,43.69
2018-05-02T10:30:26.265Z,41.73
2018-05-02T10:32:52.016Z,43.12
2018-05-02T10:35:17.762Z,43.08
2018-05-02T10:37:43.526Z,43.51
2018-05-02T10:40:09.271Z,44.41
2018-05-02T10:42:35.026Z,44.93
2018-05-02T10:45:00.760Z,42.85
2018-05-02T10:47:26.506Z,42.29
2018-05-02T10:49:52.245Z,40.88
2018-05-02T10:52:18.006Z,39.84
2018-05-02T10:54:43.740Z,41.28
2018-05-02T10:57:09.488Z,39.63
2018-05-02T10:59:35.226Z,43.01
2018-05-02T11:02:00.964Z,40.70
2018-05-02T11:04:26.713Z,41.53
2018-05-02T11:06:52.452Z,42.71
2018-05-02T11:09:18.188Z,40.87
2018-05-02T11:11:43.928Z,39.77
2018-05-02T11:14:09.660Z,41.56
2018-05-02T11:16:35.419Z,42.47
2018-05-02T11:19:01.170Z,40.84
2018-05-02T11:21:26.900Z,40.00
2018-05-02T11:23:52.641Z,39.32
2018-05-02T11:26:18.397Z,42.10
2018-05-02T11:28:44.128Z,40.08
2018-05-02T11:31:09.899Z,39.90
2018-05-02T11:33:35.660Z,38.92
2018-05-02T11:36:01.385Z,38.24
2018-05-02T11:38:27.148Z,39.78
2018-05-02T11:40:52.890Z,40.47
2018-05-02T11:43:18.638Z,39.19
2018-05-02T11:45:44.387Z,42.62
2018-05-02T11:48:10.130Z,40.09
2018-05-02T11:50:35.877Z,40.72
2018-05-02T11:53:01.644Z,41.54
2018-05-02T11:55:27.383Z,39.67
2018-05-02T11:57:53.158Z,40.35
2018-05-02T12:00:18.902Z,40.52
2018-05-02T12:02:44.639Z,40.65
2018-05-02T12:05:10.371Z,39.25
2018-05-02T12:07:36.130Z,41.65
2018-05-02T12:10:01.880Z,41.10
2018-05-02T12:12:27.760Z,41.42
2018-05-02T12:14:53.513Z,40.84
2018-05-02T12:17:19.285Z,39.64
2018-05-02T12:19:45.034Z,38.21
2018-05-02T12:22:10.792Z,39.97
2018-05-02T12:24:36.520Z,38.87
2018-05-02T12:27:02.269Z,38.92
2018-05-02T12:29:28.010Z,41.13
2018-05-02T12:31:53.748Z,39.52
2018-05-02T12:34:19.580Z,40.55
2018-05-02T12:36:45.363Z,41.77
2018-05-02T12:39:11.181Z,40.63
2018-05-02T12:41:36.950Z,39.30
2018-05-02T12:44:02.701Z,39.10
2018-05-02T12:46:28.439Z,40.01
2018-05-02T12:48:54.197Z,39.62
2018-05-02T12:51:19.936Z,39.56
2018-05-02T12:53:45.676Z,38.21
2018-05-02T12:56:11.477Z,38.75
2018-05-02T12:58:37.209Z,39.48
2018-05-02T13:01:03.015Z,40.56
2018-05-02T13:03:28.768Z,38.55
2018-05-02T13:05:54.503Z,37.30
2018-05-02T13:08:20.291Z,36.86
2018-05-02T13:10:46.037Z,37.68
2018-05-02T13:13:11.776Z,39.25
2018-05-02T13:15:37.589Z,35.69
2018-05-02T13:18:03.277Z,37.18
2018-05-02T13:20:36.020Z,36.76
2018-05-02T13:23:01.751Z,39.26
2018-05-02T13:25:27.645Z,36.49
2018-05-02T13:27:53.403Z,37.48
2018-05-02T13:30:19.140Z,38.56
2018-05-02T13:32:44.898Z,38.10
2018-05-02T13:35:10.621Z,38.04
2018-05-02T13:37:36.377Z,36.55
2018-05-02T13:40:02.135Z,37.53
2018-05-02T13:42:27.922Z,37.49
2018-05-02T13:44:53.663Z,37.25
2018-05-02T13:47:19.576Z,39.99
2018-05-02T13:49:45.518Z,38.18
2018-05-02T13:52:11.508Z,37.93
2018-05-02T13:54:37.269Z,39.38
2018-05-02T13:57:03.020Z,38.56
2018-05-02T13:59:28.956Z,38.55
2018-05-02T14:01:54.688Z,37.84
2018-05-02T14:04:20.651Z,37.58
2018-05-02T14:06:46.384Z,38.24
2018-05-02T14:09:12.144Z,36.03
2018-05-02T14:11:38.053Z,36.72
2018-05-02T14:14:03.912Z,36.45
2018-05-02T14:16:29.714Z,38.59
2018-05-02T14:18:55.488Z,37.35
2018-05-02T14:21:21.227Z,37.24
2018-05-02T14:23:47.008Z,39.43
2018-05-02T14:26:12.768Z,39.76
2018-05-02T14:28:38.530Z,36.73
2018-05-02T14:31:04.273Z,39.09
2018-05-02T14:33:30.029Z,37.98
2018-05-02T14:35:55.752Z,38.39
2018-05-02T14:38:21.645Z,39.33
2018-05-02T14:40:47.300Z,38.91
2018-05-02T14:43:13.028Z,37.91
2018-05-02T14:45:38.772Z,41.11
2018-05-02T14:48:04.524Z,38.96
2018-05-02T14:50:30.256Z,38.49
2018-05-02T14:52:56.020Z,37.58
2018-05-02T14:55:21.760Z,38.02
2018-05-02T14:57:47.529Z,37.96
2018-05-02T15:00:13.270Z,38.23
2018-05-02T15:02:39.004Z,39.00
2018-05-02T15:05:04.757Z,38.81
2018-05-02T15:07:30.501Z,39.32
2018-05-02T15:09:56.232Z,39.17
2018-05-02T15:12:21.968Z,38.89
2018-05-02T15:14:47.717Z,40.81
2018-05-02T15:17:13.464Z,39.59
2018-05-02T15:19:39.205Z,40.63
2018-05-02T15:22:04.945Z,38.57
2018-05-02T15:24:30.693Z,38.87
2018-05-02T15:26:56.442Z,39.17
2018-05-02T15:29:22.203Z,39.58
2018-05-02T15:31:47.937Z,40.06
2018-05-02T15:34:13.708Z,39.46
2018-05-02T15:36:39.448Z,39.54
2018-05-02T15:39:05.185Z,41.30
2018-05-02T15:41:30.904Z,40.12
2018-05-02T15:43:56.647Z,40.83
2018-05-02T15:46:22.368Z,38.25
2018-05-02T15:48:48.119Z,38.94
2018-05-02T15:51:13.872Z,39.42
2018-05-02T15:53:39.615Z,40.59
2018-05-02T15:56:05.433Z,39.65
2018-05-02T15:58:31.231Z,39.92
2018-05-02T16:00:56.856Z,39.64
2018-05-02T16:03:22.606Z,42.73
2018-05-02T16:05:48.336Z,42.15
2018-05-02T16:08:14.117Z,40.35
2018-05-02T16:10:39.847Z,38.96
2018-05-02T16:13:05.700Z,41.18
2018-05-02T16:15:31.460Z,40.55
2018-05-02T16:17:57.189Z,40.92
2018-05-02T16:20:23.140Z,42.32
2018-05-02T16:22:48.863Z,40.36
2018-05-02T16:25:14.675Z,39.50
2018-05-02T16:27:40.498Z,39.82
2018-05-02T16:30:06.148Z,40.14
2018-05-02T16:32:31.874Z,40.74
2018-05-02T16:34:57.608Z,40.84
2018-05-02T16:37:23.332Z,41.24
2018-05-02T16:39:49.089Z,40.54
2018-05-02T16:42:14.807Z,41.48
2018-05-02T16:44:40.555Z,42.36
2018-05-02T16:47:06.297Z,42.51
2018-05-02T16:49:32.036Z,43.47
2018-05-02T16:51:57.767Z,43.46
2018-05-02T16:54:23.509Z,42.53
2018-05-02T16:56:49.250Z,43.18
2018-05-02T16:59:14.993Z,43.99
2018-05-02T17:01:40.717Z,44.35
2018-05-02T17:04:06.464Z,44.48
2018-05-02T17:06:32.180Z,44.58
2018-05-02T17:08:57.929Z,44.79
2018-05-02T17:11:23.663Z,44.88
2018-05-02T17:13:49.395Z,45.08
2018-05-02T17:16:15.140Z,45.49
2018-05-02T17:18:40.880Z,45.64
2018-05-02T17:21:06.652Z,45.93
2018-05-02T17:23:32.417Z,45.83
2018-05-02T17:25:58.192Z,46.59
2018-05-02T17:28:23.968Z,46.27
2018-05-02T17:30:56.745Z,46.55
2018-05-02T17:33:22.488Z,46.57
2018-05-02T17:35:48.221Z,47.93
2018-05-02T17:38:13.952Z,46.52
2018-05-02T17:40:39.737Z,47.47
2018-05-02T17:43:05.460Z,47.82
2018-05-02T17:45:31.200Z,47.44
2018-05-02T17:47:56.928Z,47.90
2018-05-02T17:50:22.670Z,47.77
2018-05-02T17:52:48.403Z,48.02
2018-05-02T17:55:14.153Z,48.98
2018-05-02T17:57:39.898Z,49.75
2018-05-02T18:00:05.652Z,48.56
2018-05-02T18:02:31.376Z,48.62
2018-05-02T18:04:57.128Z,49.88
2018-05-02T18:07:22.844Z,50.46
2018-05-02T18:09:48.590Z,50.22
2018-05-02T18:12:14.312Z,50.01
2018-05-02T18:14:40.041Z,49.98
2018-05-02T18:17:05.756Z,50.35
2018-05-02T18:19:31.516Z,50.32
2018-05-02T18:21:57.257Z,50.79
2018-05-02T18:24:22.981Z,51.11
2018-05-02T18:26:48.709Z,50.77
2018-05-02T18:29:14.439Z,51.34
2018-05-02T18:31:40.189Z,51.04
2018-05-02T18:34:05.911Z,51.70
2018-05-02T18:36:31.746Z,52.40
2018-05-02T18:38:57.402Z,51.44
2018-05-02T18:41:23.152Z,51.64
2018-05-02T18:43:48.885Z,52.99
2018-05-02T18:46:14.623Z,52.86
2018-05-02T18:48:40.344Z,52.72
2018-05-02T18:51:06.073Z,53.66
2018-05-02T18:53:31.813Z,54.34
2018-05-02T18:55:57.544Z,54.44
2018-05-02T18:58:23.311Z,54.43
2018-05-02T19:00:49.021Z,54.19
2018-05-02T19:03:14.751Z,54.02
2018-05-02T19:05:40.496Z,54.35
2018-05-02T19:08:06.225Z,54.65
2018-05-02T19:10:31.959Z,55.07
2018-05-02T19:12:57.681Z,55.30
2018-05-02T19:15:23.425Z,55.86
2018-05-02T19:17:55.344Z,55.72
2018-05-02T19:20:27.272Z,56.87
2018-05-02T19:22:53.008Z,55.79
2018-05-02T19:25:24.968Z,56.09
2018-05-02T19:27:50.709Z,56.20
2018-05-02T19:30:16.444Z,56.88
2018-05-02T19:32:48.125Z,57.14
2018-05-02T19:35:13.872Z,56.73
2018-05-02T19:37:39.612Z,57.27
2018-05-02T19:40:11.448Z,56.83
2018-05-02T19:42:43.326Z,57.15
2018-05-02T19:45:09.052Z,57.50
2018-05-02T19:47:34.784Z,57.51
2018-05-02T19:50:00.512Z,58.81
2018-05-02T19:52:32.341Z,59.12
2018-05-02T19:54:58.086Z,59.19
2018-05-02T19:57:23.828Z,58.88
2018-05-02T19:59:49.552Z,59.06
2018-05-02T20:02:21.345Z,59.33
2018-05-02T20:04:47.378Z,58.77
2018-05-02T20:07:19.280Z,59.05
2018-05-02T20:09:51.117Z,59.20
2018-05-02T20:12:23.052Z,60.36
2018-05-02T20:14:48.792Z,60.26
2018-05-02T20:17:14.533Z,61.04
2018-05-02T20:19:40.258Z,60.48
2018-05-02T20:22:06.003Z,60.65
2018-05-02T20:24:31.740Z,61.00
2018-05-02T20:26:57.475Z,61.49
2018-05-02T20:29:23.203Z,61.35
2018-05-02T20:31:48.935Z,62.48
2018-05-02T20:34:14.663Z,61.65
2018-05-02T20:36:40.407Z,62.79
2018-05-02T20:39:06.147Z,63.63
2018-05-02T20:41:31.879Z,63.62
2018-05-02T20:43:57.659Z,64.20
2018-05-02T20:46:23.432Z,63.91
2018-05-02T20:48:49.095Z,64.17
2018-05-02T20:51:14.829Z,63.80
2018-05-02T20:53:40.572Z,64.26
2018-05-02T20:56:06.301Z,64.34
2018-05-02T20:58:32.049Z,64.10
2018-05-02T21:00:57.787Z,64.85
2018-05-02T21:03:23.531Z,65.19
2018-05-02T21:05:49.260Z,65.88
2018-05-02T21:08:14.994Z,65.67
2018-05-02T21:10:40.724Z,66.05
2018-05-02T21:13:06.466Z,66.47
2018-05-02T21:15:32.197Z,65.76
2018-05-02T21:17:57.944Z,66.10
2018-05-02T21:20:23.667Z,66.48
2018-05-02T21:22:49.400Z,66.83
2018-05-02T21:25:15.187Z,67.89
2018-05-02T21:27:40.945Z,67.99
2018-05-02T21:30:06.742Z,68.40
2018-05-02T21:32:32.796Z,68.99
2018-05-02T21:34:58.523Z,68.65
2018-05-02T21:37:24.261Z,69.22
2018-05-02T21:39:49.984Z,69.20
2018-05-02T21:42:15.720Z,69.07
2018-05-02T21:44:41.444Z,68.81
2018-05-02T21:47:07.179Z,68.91
2018-05-02T21:49:32.893Z,69.54
2018-05-02T21:51:58.638Z,70.06
2018-05-02T21:54:24.356Z,70.08
2018-05-02T21:56:50.108Z,70.07
2018-05-02T21:59:15.838Z,70.33
2018-05-02T22:01:41.567Z,69.92
2018-05-02T22:04:07.416Z,70.72
2018-05-02T22:06:33.143Z,71.03
2018-05-02T22:08:58.890Z,71.49
2018-05-02T22:11:24.620Z,71.10
2018-05-02T22:13:50.366Z,71.03
2018-05-02T22:16:16.091Z,71.10
2018-05-02T22:18:41.816Z,71.13
2018-05-02T22:21:07.536Z,72.15
2018-05-02T22:23:33.271Z,72.19
2018-05-02T22:25:59.010Z,73.15
2018-05-02T22:28:24.749Z,72.88
2018-05-02T22:30:50.484Z,72.69
2018-05-02T22:33:16.215Z,73.18
2018-05-02T22:35:41.932Z,74.51
2018-05-02T22:38:07.665Z,73.80
2018-05-02T22:40:33.392Z,74.42
2018-05-02T22:42:59.124Z,74.65
2018-05-02T22:45:24.860Z,74.84
2018-05-02T22:47:50.599Z,74.96
2018-05-02T22:50:16.323Z,74.86
2018-05-02T22:52:42.054Z,75.48
2018-05-02T22:55:07.773Z,74.20
2018-05-02T22:57:33.508Z,74.71
2018-05-02T22:59:59.249Z,75.36
2018-05-02T23:02:24.976Z,74.91
2018-05-02T23:04:50.711Z,75.09
2018-05-02T23:07:16.437Z,76.05
2018-05-02T23:09:42.166Z,76.08
2018-05-02T23:12:07.887Z,76.20
2018-05-02T23:14:33.613Z,76.04
2018-05-02T23:16:59.327Z,76.29
2018-05-02T23:19:25.068Z,75.97
2018-05-02T23:21:50.776Z,75.68
2018-05-02T23:24:16.504Z,75.91
2018-05-02T23:26:42.237Z,76.43
2018-05-02T23:29:07.974Z,76.65
2018-05-02T23:31:33.711Z,76.89
2018-05-02T23:33:59.435Z,76.99
2018-05-02T23:36:25.149Z,77.94
2018-05-02T23:38:50.885Z,77.70
2018-05-02T23:41:16.669Z,77.76
2018-05-02T23:43:42.361Z,77.43
2018-05-02T23:46:08.093Z,77.56
2018-05-02T23:48:33.820Z,78.09
2018-05-02T23:50:59.577Z,77.72
2018-05-02T23:53:25.312Z,77.45
2018-05-02T23:55:51.033Z,78.23
2018-05-02T23:58:16.772Z,77.47
